Time;durP1;ratioP1;P1;durP2;ratioP2;P2;SDS_P1;SDS_P2;PMS_P1;PMS_P2;Temp;Humidity;BMP_temperature;BMP_pressure;BME280_temperature;BME280_humidity;BME280_pressure;Samples;Min_cycle;Max_cycle;Signal;HPM_P1;HPM_P2
2024/02/19 00:00:25;;;;;;;5.73;5.63;;;11.00;40.00;;;;;;4977662;28;20183;-81
2024/02/19 00:02:51;;;;;;;5.23;5.13;;;11.10;40.30;;;;;;4980006;28;20202;-80
2024/02/19 00:05:16;;;;;;;5.90;5.80;;;11.20;39.40;;;;;;4978343;28;20934;-80
2024/02/19 00:07:42;;;;;;;6.30;6.10;;;11.20;39.30;;;;;;4978861;28;20190;-80
2024/02/19 00:10:08;;;;;;;6.03;5.73;;;11.10;39.20;;;;;;4977528;28;20206;-84
2024/02/19 00:12:34;;;;;;;6.93;6.73;;;11.00;39.00;;;;;;4978387;28;20298;-83
2024/02/19 00:15:00;;;;;;;6.30;6.10;;;11.00;40.20;;;;;;4985463;28;20429;-81
2024/02/19 00:17:26;;;;;;;5.90;5.80;;;11.10;40.20;;;;;;4983151;28;20182;-81
2024/02/19 00:19:51;;;;;;;6.07;5.93;;;11.10;40.20;;;;;;4981005;28;20422;-80
2024/02/19 00:22:17;;;;;;;5.70;5.50;;;11.00;40.30;;;;;;4982551;28;20203;-81
2024/02/19 00:24:44;;;;;;;6.40;6.20;;;11.00;40.10;;;;;;4984987;28;20198;-80
2024/02/19 00:27:09;;;;;;;6.40;6.20;;;11.00;40.60;;;;;;4986991;28;20185;-80
2024/02/19 00:29:35;;;;;;;6.77;6.57;;;11.00;41.00;;;;;;4977601;28;20458;-80
2024/02/19 00:32:00;;;;;;;6.00;5.90;;;10.90;41.20;;;;;;4977569;28;20313;-80
2024/02/19 00:34:26;;;;;;;5.87;5.77;;;11.00;41.80;;;;;;4978234;28;20183;-82
2024/02/19 00:36:52;;;;;;;5.57;5.47;;;11.00;41.10;;;;;;4978317;28;20179;-81
2024/02/19 00:39:17;;;;;;;5.97;5.87;;;11.20;41.20;;;;;;4977164;28;20430;-79
2024/02/19 00:41:43;;;;;;;5.60;5.50;;;11.30;39.80;;;;;;4977836;28;20186;-80
2024/02/19 00:44:08;;;;;;;6.33;6.23;;;11.40;39.30;;;;;;4977609;28;20182;-81
2024/02/19 00:46:34;;;;;;;6.13;6.03;;;11.20;38.80;;;;;;4978828;28;20205;-81
2024/02/19 00:49:00;;;;;;;6.23;6.03;;;11.20;40.10;;;;;;4977237;28;20186;-80
2024/02/19 00:51:25;;;;;;;6.40;6.20;;;11.20;40.20;;;;;;4976386;28;20233;-80
2024/02/19 00:53:51;;;;;;;6.20;6.00;;;11.20;40.30;;;;;;4976626;28;20285;-79
2024/02/19 00:56:19;;;;;;;6.43;6.23;;;11.30;40.00;;;;;;4977372;28;20267;-83
2024/02/19 00:58:45;;;;;;;6.60;6.40;;;11.30;40.00;;;;;;4977250;28;20269;-80
2024/02/19 01:01:10;;;;;;;6.43;6.20;;;11.10;39.70;;;;;;4976443;28;20452;-81
2024/02/19 01:03:36;;;;;;;6.90;6.70;;;11.10;41.00;;;;;;4977995;28;20211;-81
2024/02/19 01:06:04;;;;;;;6.10;6.00;;;11.10;40.80;;;;;;4984484;28;20186;-83
2024/02/19 01:08:31;;;;;;;6.13;5.93;;;11.10;41.10;;;;;;4993454;28;20178;-81
2024/02/19 01:10:57;;;;;;;5.90;5.70;;;11.20;41.10;;;;;;4993426;28;20504;-81
2024/02/19 01:13:23;;;;;;;6.00;5.83;;;11.40;40.60;;;;;;4977646;28;20950;-80
2024/02/19 01:15:48;;;;;;;6.00;5.80;;;11.50;39.20;;;;;;4976617;28;20421;-80
2024/02/19 01:18:15;;;;;;;6.53;6.33;;;11.60;38.70;;;;;;4976398;28;20201;-81
2024/02/19 01:20:41;;;;;;;6.13;6.03;;;11.70;38.80;;;;;;4976281;28;20187;-80
2024/02/19 01:23:06;;;;;;;7.00;6.80;;;11.80;38.30;;;;;;4976675;28;20476;-80
2024/02/19 01:25:33;;;;;;;6.73;6.53;;;11.80;38.00;;;;;;4976857;28;20194;-81
2024/02/19 01:27:59;;;;;;;6.13;6.03;;;11.80;37.20;;;;;;4976595;28;20205;-80
2024/02/19 01:30:26;;;;;;;7.00;6.80;;;11.70;37.40;;;;;;4977412;28;20453;-81
2024/02/19 01:32:52;;;;;;;6.73;6.53;;;11.70;37.60;;;;;;4976733;28;20194;-80
2024/02/19 01:35:17;;;;;;;6.43;6.23;;;11.50;37.50;;;;;;4977145;28;20442;-79
2024/02/19 01:37:43;;;;;;;7.10;6.90;;;11.50;38.80;;;;;;4968671;28;20182;-82
2024/02/19 01:40:09;;;;;;;6.73;6.53;;;11.40;39.00;;;;;;4976517;28;20187;-79
2024/02/19 01:42:35;;;;;;;6.97;6.77;;;11.40;39.10;;;;;;4976374;28;20229;-80
2024/02/19 01:45:07;;;;;;;6.50;6.30;;;11.50;39.70;;;;;;4977639;28;21065;-80
2024/02/19 01:47:34;;;;;;;6.87;6.67;;;11.60;38.70;;;;;;4978925;28;20456;-81
2024/02/19 01:50:00;;;;;;;7.07;6.87;;;11.60;38.80;;;;;;4977493;28;20792;-81
2024/02/19 01:52:26;;;;;;;6.10;6.00;;;11.50;39.20;;;;;;4976687;28;20442;-83
2024/02/19 01:54:52;;;;;;;6.83;6.63;;;11.40;39.70;;;;;;4977453;28;20430;-81
2024/02/19 01:57:19;;;;;;;6.63;6.43;;;11.10;40.50;;;;;;4978271;28;20426;-82
2024/02/19 01:59:45;;;;;;;6.80;6.60;;;11.10;41.20;;;;;;4969904;28;20518;-83
2024/02/19 02:02:12;;;;;;;6.53;6.33;;;11.00;41.60;;;;;;4978241;28;20445;-83
2024/02/19 02:04:38;;;;;;;6.17;6.07;;;10.90;42.40;;;;;;4979322;28;20426;-83
2024/02/19 02:07:04;;;;;;;6.30;6.10;;;11.00;42.50;;;;;;4976848;28;20847;-82
2024/02/19 02:09:30;;;;;;;5.97;5.87;;;11.00;42.50;;;;;;4974716;28;20466;-82
2024/02/19 02:11:56;;;;;;;5.93;5.83;;;10.90;42.40;;;;;;4975641;28;20458;-80
2024/02/19 02:14:22;;;;;;;6.57;6.37;;;11.10;42.60;;;;;;4977290;28;20187;-80
2024/02/19 02:16:47;;;;;;;6.30;6.10;;;11.10;42.20;;;;;;4975316;28;20429;-80
2024/02/19 02:19:15;;;;;;;6.10;6.00;;;11.10;42.00;;;;;;4976044;28;20206;-81
2024/02/19 02:21:41;;;;;;;5.80;5.70;;;11.10;42.60;;;;;;4979259;28;20190;-81
2024/02/19 02:24:07;;;;;;;6.13;5.93;;;11.20;41.10;;;;;;4979439;28;20516;-79
2024/02/19 02:26:40;;;;;;;6.20;6.00;;;11.20;40.90;;;;;;4979367;28;20429;-81
2024/02/19 02:29:06;;;;;;;6.47;6.27;;;11.20;42.30;;;;;;4977863;28;20269;-79
2024/02/19 02:31:32;;;;;;;6.20;6.00;;;11.20;42.20;;;;;;4977948;28;20457;-79
2024/02/19 02:33:57;;;;;;;6.57;6.37;;;11.20;41.80;;;;;;4978401;28;20421;-80
2024/02/19 02:36:23;;;;;;;6.00;5.90;;;11.30;42.80;;;;;;4978119;28;20175;-80
2024/02/19 02:38:48;;;;;;;6.70;6.50;;;11.20;42.10;;;;;;4977378;28;20167;-81
2024/02/19 02:41:15;;;;;;;6.20;6.10;;;11.00;42.50;;;;;;4977979;28;20270;-80
2024/02/19 02:43:41;;;;;;;6.50;6.30;;;11.00;42.50;;;;;;4977807;28;20207;-79
2024/02/19 02:46:07;;;;;;;6.67;6.47;;;11.10;43.00;;;;;;4977929;28;20433;-81
2024/02/19 02:48:33;;;;;;;6.57;6.37;;;11.00;43.00;;;;;;4979008;28;20193;-82
2024/02/19 02:50:58;;;;;;;6.03;5.83;;;11.20;43.40;;;;;;4979422;28;20198;-80
2024/02/19 02:53:24;;;;;;;6.53;6.33;;;11.10;42.60;;;;;;4981318;28;20434;-80
2024/02/19 02:55:49;;;;;;;6.33;6.13;;;11.10;42.60;;;;;;4983550;28;20214;-82
2024/02/19 02:58:15;;;;;;;6.63;6.43;;;11.30;42.20;;;;;;4980746;28;20538;-82
2024/02/19 03:00:40;;;;;;;7.33;7.03;;;11.30;41.60;;;;;;4981160;28;20230;-82
2024/02/19 03:03:06;;;;;;;6.63;6.43;;;11.40;41.30;;;;;;4980640;28;20641;-82
2024/02/19 03:05:32;;;;;;;7.67;7.37;;;11.40;41.50;;;;;;4979393;28;20321;-81
2024/02/19 03:07:57;;;;;;;6.77;6.57;;;11.50;41.30;;;;;;4979738;28;20197;-80
2024/02/19 03:10:23;;;;;;;6.27;6.07;;;11.70;40.90;;;;;;4977769;28;20206;-82
2024/02/19 03:12:48;;;;;;;6.73;6.43;;;11.60;40.70;;;;;;4981581;28;20207;-78
2024/02/19 03:15:14;;;;;;;6.40;6.20;;;11.60;40.70;;;;;;4986659;28;20230;-79
2024/02/19 03:17:40;;;;;;;6.80;6.60;;;11.60;40.20;;;;;;4981564;28;20194;-80
2024/02/19 03:20:12;;;;;;;6.93;6.73;;;11.60;40.00;;;;;;4978159;28;20174;-80
2024/02/19 03:22:38;;;;;;;7.77;7.57;;;11.50;40.10;;;;;;4978166;28;20199;-81
2024/02/19 03:25:04;;;;;;;7.70;7.40;;;11.60;40.40;;;;;;4979052;28;20871;-81
2024/02/19 03:27:30;;;;;;;8.30;7.90;;;11.50;40.60;;;;;;4979507;28;20313;-82
2024/02/19 03:29:55;;;;;;;8.03;7.73;;;11.40;40.90;;;;;;4977528;28;20446;-83
2024/02/19 03:32:22;;;;;;;7.50;7.30;;;11.40;41.40;;;;;;4977418;28;20195;-80
2024/02/19 03:34:47;;;;;;;7.40;7.20;;;11.50;41.50;;;;;;4977025;28;20171;-83
2024/02/19 03:37:15;;;;;;;7.80;7.50;;;11.30;42.30;;;;;;4969980;28;20473;-81
2024/02/19 03:39:40;;;;;;;8.37;8.07;;;11.30;42.50;;;;;;4978638;28;20198;-82
2024/02/19 03:42:06;;;;;;;8.00;7.60;;;11.20;42.70;;;;;;4977033;28;20953;-82
2024/02/19 03:44:32;;;;;;;7.17;6.97;;;11.30;42.60;;;;;;4976611;28;20201;-82
2024/02/19 03:46:58;;;;;;;7.83;7.63;;;11.30;42.70;;;;;;4976922;28;20182;-80
2024/02/19 03:49:25;;;;;;;7.33;7.13;;;11.40;41.70;;;;;;4976772;28;20437;-82
2024/02/19 03:51:50;;;;;;;8.33;7.97;;;11.20;42.70;;;;;;4976282;28;20474;-83
2024/02/19 03:54:16;;;;;;;7.87;7.57;;;11.10;42.60;;;;;;4977344;28;20445;-83
2024/02/19 03:56:42;;;;;;;7.47;7.27;;;11.10;43.70;;;;;;4977502;28;20214;-80
2024/02/19 03:59:07;;;;;;;8.00;7.47;;;11.10;43.60;;;;;;4976301;28;20175;-80
2024/02/19 04:01:33;;;;;;;7.60;7.30;;;11.10;42.90;;;;;;4977610;28;20218;-81
2024/02/19 04:03:58;;;;;;;7.77;7.47;;;11.00;44.20;;;;;;4977574;28;20183;-80
2024/02/19 04:06:24;;;;;;;7.67;7.47;;;11.10;44.10;;;;;;4978059;28;20190;-80
2024/02/19 04:08:49;;;;;;;7.80;7.60;;;11.10;44.60;;;;;;4976455;28;20631;-80
2024/02/19 04:11:18;;;;;;;7.73;7.53;;;11.10;44.30;;;;;;4976828;28;20241;-82
2024/02/19 04:13:44;;;;;;;7.50;7.30;;;11.00;44.60;;;;;;4977813;28;20253;-81
2024/02/19 04:16:09;;;;;;;7.90;7.60;;;11.00;45.50;;;;;;4976811;28;20422;-80
2024/02/19 04:18:35;;;;;;;9.00;8.70;;;10.90;45.00;;;;;;4977962;28;20189;-83
2024/02/19 04:21:01;;;;;;;7.63;7.40;;;11.00;45.00;;;;;;4994450;28;20198;-83
2024/02/19 04:23:26;;;;;;;7.70;7.50;;;10.90;45.70;;;;;;4992620;23;20648;-79
2024/02/19 04:25:52;;;;;;;7.73;7.43;;;10.90;45.70;;;;;;4972643;28;20266;-79
2024/02/19 04:28:17;;;;;;;8.20;7.90;;;10.90;45.60;;;;;;4959062;28;20550;-80
2024/02/19 04:30:43;;;;;;;7.90;7.50;;;10.90;45.80;;;;;;4956032;29;20620;-79
2024/02/19 04:33:09;;;;;;;7.80;7.60;;;11.00;45.10;;;;;;4957121;28;20614;-79
2024/02/19 04:35:35;;;;;;;7.97;7.67;;;11.10;44.90;;;;;;4954340;28;20282;-79
2024/02/19 04:38:01;;;;;;;7.87;7.57;;;11.00;44.30;;;;;;4954754;28;20578;-79
2024/02/19 04:40:26;;;;;;;8.50;8.17;;;11.10;44.00;;;;;;4954062;29;20202;-80
2024/02/19 04:42:52;;;;;;;7.97;7.67;;;11.20;43.80;;;;;;4953582;28;20204;-80
2024/02/19 04:45:17;;;;;;;9.23;8.73;;;11.20;43.40;;;;;;4970102;28;20206;-80
2024/02/19 04:47:43;;;;;;;8.80;8.50;;;11.20;42.70;;;;;;4955546;29;20222;-79
2024/02/19 04:50:09;;;;;;;8.43;8.13;;;11.20;42.70;;;;;;4955550;28;20199;-80
2024/02/19 04:52:35;;;;;;;12.53;11.93;;;11.20;41.30;;;;;;4954638;28;20211;-80
2024/02/19 04:55:00;;;;;;;9.37;8.80;;;11.40;40.20;;;;;;4956813;28;20439;-80
2024/02/19 04:57:26;;;;;;;9.73;9.33;;;11.30;40.00;;;;;;4963391;29;20442;-80
2024/02/19 04:59:51;;;;;;;9.17;8.80;;;11.20;40.50;;;;;;4962692;29;20198;-80
2024/02/19 05:02:17;;;;;;;8.77;8.43;;;11.10;40.30;;;;;;4951390;29;20214;-80
2024/02/19 05:04:42;;;;;;;9.17;8.83;;;11.10;40.60;;;;;;4956405;28;20198;-80
2024/02/19 05:07:08;;;;;;;9.03;8.63;;;11.10;40.80;;;;;;4958623;28;20228;-79
2024/02/19 05:09:33;;;;;;;9.20;8.80;;;11.10;40.10;;;;;;4957883;28;20262;-80
2024/02/19 05:11:59;;;;;;;10.77;10.27;;;11.20;40.20;;;;;;4956182;28;20215;-80
2024/02/19 05:14:24;;;;;;;10.17;9.37;;;11.10;39.00;;;;;;4957193;28;20564;-79
2024/02/19 05:16:50;;;;;;;9.40;8.90;;;11.10;39.10;;;;;;4949019;29;20194;-80
2024/02/19 05:19:15;;;;;;;9.90;9.43;;;11.10;38.80;;;;;;4957970;28;20225;-79
2024/02/19 05:21:41;;;;;;;9.43;9.03;;;11.10;38.60;;;;;;4956650;29;20255;-79
2024/02/19 05:24:08;;;;;;;11.33;10.53;;;11.10;38.20;;;;;;4951325;28;20255;-80
2024/02/19 05:26:34;;;;;;;10.40;9.90;;;11.10;38.80;;;;;;4954663;29;20191;-79
2024/02/19 05:29:00;;;;;;;9.37;9.00;;;11.00;39.10;;;;;;4954991;28;20858;-80
2024/02/19 05:31:33;;;;;;;9.50;9.07;;;10.90;39.00;;;;;;4947557;29;20481;-80
2024/02/19 05:34:01;;;;;;;10.20;9.57;;;11.10;38.70;;;;;;4964360;28;20202;-81
2024/02/19 05:36:27;;;;;;;10.07;9.67;;;11.10;38.80;;;;;;4964087;28;20780;-80
2024/02/19 05:38:52;;;;;;;9.90;9.30;;;11.10;37.70;;;;;;4955453;28;20531;-80
2024/02/19 05:41:18;;;;;;;8.80;8.40;;;11.20;37.70;;;;;;4956398;28;20189;-81
2024/02/19 05:43:44;;;;;;;8.90;8.30;;;11.20;37.10;;;;;;4955339;28;20215;-81
2024/02/19 05:46:09;;;;;;;9.03;8.43;;;11.10;36.90;;;;;;4956556;28;20187;-80
2024/02/19 05:48:35;;;;;;;10.83;10.00;;;11.00;38.40;;;;;;4956728;29;20237;-80
2024/02/19 05:51:03;;;;;;;10.60;10.10;;;10.90;38.50;;;;;;4956353;28;20199;-80
2024/02/19 05:53:29;;;;;;;10.60;9.90;;;10.90;38.30;;;;;;4949794;28;20214;-80
2024/02/19 05:55:55;;;;;;;10.20;9.70;;;10.80;38.90;;;;;;4956284;28;20459;-79
2024/02/19 05:58:21;;;;;;;9.97;9.40;;;10.70;39.00;;;;;;4958348;29;20427;-79
2024/02/19 06:00:46;;;;;;;9.37;8.97;;;10.80;38.80;;;;;;4958249;28;20562;-80
2024/02/19 06:03:12;;;;;;;10.40;9.87;;;10.90;38.00;;;;;;4960071;28;20279;-79
2024/02/19 06:05:38;;;;;;;9.80;9.20;;;11.00;38.00;;;;;;4960761;28;20202;-80
2024/02/19 06:08:04;;;;;;;11.17;10.57;;;11.10;37.60;;;;;;4966934;28;20439;-80
2024/02/19 06:10:29;;;;;;;10.20;9.57;;;11.10;36.90;;;;;;4959719;28;20219;-80
2024/02/19 06:12:55;;;;;;;9.90;9.40;;;11.10;37.70;;;;;;4958584;28;20199;-78
2024/02/19 06:15:21;;;;;;;9.33;8.87;;;11.20;36.20;;;;;;4958458;28;20194;-79
2024/02/19 06:17:46;;;;;;;10.47;9.93;;;11.40;35.70;;;;;;4959458;28;20219;-80
2024/02/19 06:20:12;;;;;;;10.00;9.60;;;11.40;35.10;;;;;;4958310;28;20450;-80
2024/02/19 06:22:37;;;;;;;11.57;10.93;;;11.40;35.10;;;;;;4959960;28;20347;-80
2024/02/19 06:25:03;;;;;;;9.90;9.37;;;11.50;34.60;;;;;;4960275;28;20183;-80
2024/02/19 06:27:29;;;;;;;10.53;9.83;;;11.50;34.00;;;;;;4959336;29;20203;-80
2024/02/19 06:29:54;;;;;;;10.60;10.20;;;11.50;34.30;;;;;;4959644;28;20199;-80
2024/02/19 06:32:21;;;;;;;10.30;9.80;;;11.50;34.10;;;;;;4966840;28;20211;-80
2024/02/19 06:34:47;;;;;;;10.07;9.60;;;11.30;34.80;;;;;;4960301;28;20284;-80
2024/02/19 06:37:13;;;;;;;11.13;10.43;;;11.40;35.10;;;;;;4960608;28;20423;-80
2024/02/19 06:39:40;;;;;;;9.70;9.30;;;11.40;35.30;;;;;;4958998;28;20211;-80
2024/02/19 06:42:07;;;;;;;10.03;9.53;;;11.60;34.50;;;;;;4957907;28;20215;-80
2024/02/19 06:44:32;;;;;;;10.13;9.53;;;11.60;34.00;;;;;;4943819;29;20515;-80
2024/02/19 06:46:58;;;;;;;9.97;9.47;;;11.40;34.40;;;;;;4958422;29;20477;-80
2024/02/19 06:49:23;;;;;;;8.80;8.30;;;11.40;34.50;;;;;;4959702;29;20202;-80
2024/02/19 06:51:50;;;;;;;10.27;9.63;;;11.50;33.80;;;;;;4959923;28;20218;-80
2024/02/19 06:54:21;;;;;;;9.10;8.63;;;11.50;33.90;;;;;;4959608;28;20223;-81
2024/02/19 06:56:47;;;;;;;9.10;8.70;;;11.30;35.00;;;;;;4961016;28;20430;-79
2024/02/19 06:59:13;;;;;;;9.60;8.90;;;11.00;36.00;;;;;;4973060;28;20435;-80
2024/02/19 07:01:41;;;;;;;10.33;9.53;;;10.90;36.30;;;;;;4959305;29;20195;-80
2024/02/19 07:04:06;;;;;;;9.00;8.40;;;10.80;36.50;;;;;;4960092;28;20310;-80
2024/02/19 07:06:32;;;;;;;8.43;8.03;;;10.70;36.40;;;;;;4959945;28;20467;-81
2024/02/19 07:08:57;;;;;;;8.70;8.30;;;10.60;36.00;;;;;;4961164;28;20203;-80
2024/02/19 07:11:23;;;;;;;9.07;8.50;;;10.60;37.10;;;;;;4962014;28;20222;-81
2024/02/19 07:13:51;;;;;;;8.73;8.23;;;10.50;36.70;;;;;;4960739;28;20215;-80
2024/02/19 07:16:17;;;;;;;8.80;8.30;;;10.70;36.90;;;;;;4960891;28;20213;-81
2024/02/19 07:18:42;;;;;;;8.33;7.60;;;10.70;36.80;;;;;;4959521;29;20449;-80
2024/02/19 07:21:08;;;;;;;8.80;8.20;;;10.70;36.50;;;;;;4960539;28;20192;-82
2024/02/19 07:23:41;;;;;;;9.07;8.47;;;10.60;36.50;;;;;;4962458;28;20222;-81
2024/02/19 07:26:08;;;;;;;8.53;8.03;;;10.50;36.80;;;;;;4961255;29;20656;-82
2024/02/19 07:28:33;;;;;;;9.30;8.80;;;10.50;36.70;;;;;;4959604;28;20435;-82
2024/02/19 07:31:05;;;;;;;8.20;7.80;;;10.60;36.40;;;;;;4960899;29;20210;-82
2024/02/19 07:33:32;;;;;;;9.43;8.90;;;10.80;36.10;;;;;;4960805;28;20226;-82
2024/02/19 07:35:57;;;;;;;9.57;9.07;;;10.80;34.80;;;;;;4952024;29;20440;-81
2024/02/19 07:38:23;;;;;;;9.17;8.67;;;10.70;35.60;;;;;;4957709;29;20431;-81
2024/02/19 07:40:52;;;;;;;8.80;8.07;;;10.80;35.20;;;;;;4957075;29;20194;-82
2024/02/19 07:43:20;;;;;;;9.67;9.23;;;10.90;35.50;;;;;;4951999;29;20464;-83
2024/02/19 07:45:51;;;;;;;8.90;8.50;;;10.90;35.10;;;;;;4935177;29;20538;-84
2024/02/19 07:48:17;;;;;;;9.13;8.73;;;10.90;34.80;;;;;;4946326;29;20486;-81
2024/02/19 07:50:42;;;;;;;9.30;8.70;;;10.90;34.10;;;;;;4967347;28;20462;-81
2024/02/19 07:53:08;;;;;;;8.80;8.20;;;10.90;33.20;;;;;;4963015;28;20211;-81
2024/02/19 07:55:39;;;;;;;7.77;7.37;;;11.10;32.50;;;;;;4966250;28;20198;-81
2024/02/19 07:58:09;;;;;;;8.47;8.07;;;11.00;32.40;;;;;;4959897;28;20261;-83
2024/02/19 08:00:42;;;;;;;8.20;7.80;;;11.00;32.40;;;;;;4954440;29;21213;-82
2024/02/19 08:03:08;;;;;;;8.73;8.33;;;11.00;31.70;;;;;;4959896;29;20469;-81
2024/02/19 08:05:34;;;;;;;7.93;7.60;;;11.30;30.80;;;;;;4960567;29;20439;-80
2024/02/19 08:08:01;;;;;;;8.20;7.70;;;11.30;29.40;;;;;;4962586;28;20199;-82
2024/02/19 08:10:26;;;;;;;7.33;7.03;;;11.20;29.80;;;;;;4959315;28;20694;-80
2024/02/19 08:12:52;;;;;;;7.83;7.63;;;11.10;30.40;;;;;;4961086;28;20453;-81
2024/02/19 08:15:17;;;;;;;8.03;7.60;;;11.20;29.90;;;;;;4963152;28;20223;-80
2024/02/19 08:17:43;;;;;;;7.87;7.53;;;11.10;29.20;;;;;;4959421;28;20191;-82
2024/02/19 08:20:09;;;;;;;7.90;7.60;;;11.20;29.10;;;;;;4959663;28;20233;-81
2024/02/19 08:22:34;;;;;;;8.27;7.97;;;11.00;28.60;;;;;;4960009;28;20679;-81
2024/02/19 08:25:00;;;;;;;8.17;7.67;;;10.90;29.40;;;;;;4959207;29;20517;-80
2024/02/19 08:27:27;;;;;;;8.90;8.50;;;10.80;29.40;;;;;;4954102;29;20295;-80
2024/02/19 08:29:56;;;;;;;8.10;7.80;;;10.90;29.60;;;;;;4957814;28;20427;-82
2024/02/19 08:32:21;;;;;;;8.00;7.70;;;10.80;29.60;;;;;;4957164;28;20466;-80
2024/02/19 08:34:47;;;;;;;8.47;8.13;;;10.70;29.50;;;;;;4954535;28;20872;-79
2024/02/19 08:37:16;;;;;;;8.50;8.10;;;10.80;29.00;;;;;;4957786;29;20203;-80
2024/02/19 08:39:41;;;;;;;8.30;7.60;;;10.70;29.30;;;;;;4954537;28;20538;-79
2024/02/19 08:42:07;;;;;;;8.40;8.10;;;10.50;29.00;;;;;;4950465;28;20446;-80
2024/02/19 08:44:32;;;;;;;7.40;7.00;;;10.50;29.30;;;;;;4955716;28;20209;-81
2024/02/19 08:47:03;;;;;;;7.60;7.23;;;10.60;29.80;;;;;;4956678;28;20179;-79
2024/02/19 08:49:28;;;;;;;7.67;7.37;;;10.70;29.40;;;;;;4957900;28;20639;-82
2024/02/19 08:51:54;;;;;;;8.20;7.50;;;10.60;29.40;;;;;;4951561;28;20462;-80
2024/02/19 08:54:19;;;;;;;7.90;7.40;;;10.70;28.80;;;;;;4958822;29;20254;-82
2024/02/19 08:56:45;;;;;;;6.90;6.60;;;10.70;28.80;;;;;;4960378;29;20218;-82
2024/02/19 08:59:10;;;;;;;7.73;7.23;;;10.80;28.00;;;;;;4953858;28;20187;-79
2024/02/19 09:01:37;;;;;;;8.30;7.80;;;10.80;28.20;;;;;;4956148;29;20187;-79
2024/02/19 09:04:03;;;;;;;7.73;7.30;;;10.80;27.80;;;;;;4957994;28;20198;-80
2024/02/19 09:06:28;;;;;;;8.57;8.17;;;10.90;27.90;;;;;;4958835;28;20489;-80
2024/02/19 09:08:54;;;;;;;7.27;6.87;;;11.00;27.90;;;;;;4957365;29;20183;-80
2024/02/19 09:11:19;;;;;;;7.50;7.10;;;11.20;27.00;;;;;;4957638;28;20210;-80
2024/02/19 09:13:45;;;;;;;8.70;8.30;;;11.10;27.10;;;;;;4955178;28;20207;-80
2024/02/19 09:16:10;;;;;;;8.00;7.50;;;11.20;26.40;;;;;;4956521;28;20172;-80
2024/02/19 09:18:36;;;;;;;7.83;7.43;;;11.10;26.50;;;;;;4955873;29;20175;-80
2024/02/19 09:21:02;;;;;;;8.53;8.13;;;10.90;26.90;;;;;;4965014;28;20183;-80
2024/02/19 09:23:27;;;;;;;8.20;7.70;;;11.00;27.60;;;;;;4957594;28;20294;-80
2024/02/19 09:25:54;;;;;;;7.77;7.40;;;11.00;27.30;;;;;;4959802;28;20191;-80
2024/02/19 09:28:21;;;;;;;8.30;7.80;;;10.90;27.10;;;;;;4953126;28;20310;-81
2024/02/19 09:30:47;;;;;;;7.97;7.37;;;11.20;26.90;;;;;;4961618;29;20466;-80
2024/02/19 09:33:13;;;;;;;7.37;6.97;;;11.10;26.50;;;;;;4963532;28;20467;-82
2024/02/19 09:35:38;;;;;;;7.57;7.07;;;11.10;26.20;;;;;;4955786;28;20233;-79
2024/02/19 09:38:05;;;;;;;8.07;7.67;;;11.20;26.40;;;;;;4946265;29;20241;-79
2024/02/19 09:40:32;;;;;;;7.40;7.10;;;11.20;26.00;;;;;;4954852;29;20175;-80
2024/02/19 09:43:00;;;;;;;8.10;7.70;;;11.30;25.40;;;;;;4955317;28;20473;-80
2024/02/19 09:45:26;;;;;;;6.93;6.63;;;11.20;25.70;;;;;;4956550;28;20482;-80
2024/02/19 09:47:58;;;;;;;7.47;7.10;;;11.30;25.30;;;;;;4956322;28;20419;-82
2024/02/19 09:50:25;;;;;;;7.10;6.80;;;11.20;25.90;;;;;;4954184;28;20222;-80
2024/02/19 09:52:56;;;;;;;7.43;7.10;;;11.10;26.00;;;;;;4955251;28;20439;-80
2024/02/19 09:55:24;;;;;;;8.03;7.40;;;11.10;26.10;;;;;;4955693;28;20473;-79
2024/02/19 09:57:50;;;;;;;7.57;7.27;;;11.00;26.20;;;;;;4954164;29;20426;-81
2024/02/19 10:00:21;;;;;;;7.67;7.37;;;11.00;25.90;;;;;;4955803;28;20909;-79
2024/02/19 10:02:47;;;;;;;7.90;7.30;;;11.10;25.70;;;;;;4956937;28;20616;-83
2024/02/19 10:05:12;;;;;;;8.97;8.30;;;11.10;25.60;;;;;;4949141;29;20482;-83
2024/02/19 10:07:41;;;;;;;9.63;7.90;;;11.00;25.10;;;;;;4957480;28;20662;-81
2024/02/19 10:10:11;;;;;;;7.57;7.07;;;10.90;25.70;;;;;;4957074;28;20639;-82
2024/02/19 10:12:39;;;;;;;6.97;6.77;;;10.90;26.00;;;;;;4956184;28;20443;-83
2024/02/19 10:15:05;;;;;;;8.27;7.73;;;11.10;24.70;;;;;;4954502;28;20446;-80
2024/02/19 10:17:31;;;;;;;7.87;7.40;;;11.10;25.00;;;;;;4954747;28;20443;-81
2024/02/19 10:20:05;;;;;;;8.80;8.33;;;11.10;25.40;;;;;;4955478;28;20915;-81
2024/02/19 10:22:32;;;;;;;8.20;7.80;;;11.40;24.40;;;;;;4977542;23;20496;-80
2024/02/19 10:25:00;;;;;;;8.00;7.60;;;11.50;24.60;;;;;;4955713;29;20498;-82
2024/02/19 10:27:30;;;;;;;8.07;7.67;;;11.60;24.30;;;;;;4971286;28;20449;-82
2024/02/19 10:30:28;;;;;;;8.63;8.13;;;11.40;24.10;;;;;;4954552;29;20765;-82
2024/02/19 10:32:54;;;;;;;8.20;7.70;;;11.40;24.10;;;;;;4952433;28;20483;-81
2024/02/19 10:35:19;;;;;;;7.70;7.30;;;11.20;24.80;;;;;;4944778;29;20428;-83
2024/02/19 10:37:53;;;;;;;8.23;7.80;;;11.20;25.10;;;;;;4952970;29;20188;-81
2024/02/19 10:40:20;;;;;;;7.40;6.90;;;11.10;25.20;;;;;;4929000;29;20332;-80
2024/02/19 10:42:50;;;;;;;7.77;7.37;;;11.20;25.50;;;;;;4925813;29;20867;-80
2024/02/19 10:45:21;;;;;;;9.00;8.50;;;11.30;25.00;;;;;;4968562;28;20448;-81
2024/02/19 10:47:56;;;;;;;8.50;8.10;;;11.30;24.10;;;;;;4945830;28;20542;-82
2024/02/19 10:50:22;;;;;;;8.27;7.77;;;11.30;24.10;;;;;;4968236;28;20423;-82
2024/02/19 10:52:51;;;;;;;8.37;7.57;;;11.20;24.30;;;;;;4960845;28;20474;-81
2024/02/19 10:55:22;;;;;;;7.70;7.30;;;11.30;24.10;;;;;;4959404;28;20458;-83
2024/02/19 10:57:57;;;;;;;7.57;7.00;;;11.40;24.30;;;;;;4937804;29;20424;-82
2024/02/19 11:00:39;;;;;;;8.40;7.93;;;11.30;24.10;;;;;;4935582;29;20517;-81
2024/02/19 11:03:20;;;;;;;8.00;7.40;;;11.30;24.10;;;;;;4943122;29;20490;-81
2024/02/19 11:06:35;;;;;;;7.77;7.37;;;11.50;23.20;;;;;;4937112;29;20439;-82
2024/02/19 11:09:10;;;;;;;7.70;7.33;;;11.60;23.20;;;;;;4937207;29;20799;-83
2024/02/19 11:11:35;;;;;;;7.77;7.23;;;11.60;22.90;;;;;;4941061;29;20479;-83
2024/02/19 11:14:02;;;;;;;7.50;7.10;;;11.60;23.70;;;;;;4942329;29;20519;-83
2024/02/19 11:16:28;;;;;;;9.00;8.20;;;11.60;23.50;;;;;;4961978;29;20489;-83
2024/02/19 11:18:59;;;;;;;7.70;7.40;;;11.40;24.10;;;;;;4945202;29;20440;-83
2024/02/19 11:21:25;;;;;;;7.70;7.40;;;11.30;24.10;;;;;;4952211;28;20420;-83
2024/02/19 11:23:50;;;;;;;8.47;7.90;;;11.50;23.50;;;;;;4972313;28;20500;-83
2024/02/19 11:26:16;;;;;;;7.60;7.20;;;11.40;23.70;;;;;;4960647;28;20200;-82
2024/02/19 11:28:43;;;;;;;7.80;7.30;;;11.40;23.80;;;;;;4975832;28;20259;-83
2024/02/19 11:31:13;;;;;;;7.50;6.80;;;11.40;24.00;;;;;;4960112;28;20220;-83
2024/02/19 11:33:39;;;;;;;7.60;7.20;;;11.40;23.50;;;;;;4944230;29;20459;-82
2024/02/19 11:36:04;;;;;;;8.57;8.17;;;11.20;24.00;;;;;;4941356;29;20428;-83
2024/02/19 11:38:31;;;;;;;7.73;7.23;;;11.20;23.70;;;;;;4946997;29;20278;-83
2024/02/19 11:40:59;;;;;;;7.90;7.47;;;11.30;24.60;;;;;;4942884;29;20187;-83
2024/02/19 11:43:27;;;;;;;7.90;7.50;;;11.20;24.00;;;;;;4956791;29;20487;-83
2024/02/19 11:45:53;;;;;;;7.97;7.50;;;11.20;23.90;;;;;;4942040;29;20449;-83
2024/02/19 11:48:21;;;;;;;8.30;7.87;;;11.30;24.00;;;;;;4941570;29;20451;-83
2024/02/19 11:50:47;;;;;;;7.20;6.80;;;11.20;23.60;;;;;;4944928;29;20532;-83
2024/02/19 11:53:12;;;;;;;7.40;7.00;;;11.20;24.00;;;;;;4944183;29;20554;-82
2024/02/19 11:55:39;;;;;;;6.77;6.47;;;11.20;24.00;;;;;;4938551;29;20327;-82
2024/02/19 11:58:08;;;;;;;7.73;7.23;;;11.40;23.30;;;;;;4937041;29;20192;-82
2024/02/19 12:00:35;;;;;;;7.10;6.60;;;11.40;23.00;;;;;;4937005;29;20531;-81
2024/02/19 12:03:04;;;;;;;7.17;6.77;;;11.40;22.80;;;;;;4938487;29;20464;-81
2024/02/19 12:05:30;;;;;;;7.07;6.70;;;11.30;22.60;;;;;;4952917;29;20506;-81
2024/02/19 12:07:56;;;;;;;8.63;7.83;;;11.20;23.30;;;;;;4938040;29;20875;-81
2024/02/19 12:10:22;;;;;;;7.17;6.80;;;11.20;23.10;;;;;;4948903;29;20469;-82
2024/02/19 12:12:50;;;;;;;8.10;7.50;;;11.40;23.00;;;;;;4952547;29;20299;-82
2024/02/19 12:15:16;;;;;;;6.73;6.43;;;11.30;22.80;;;;;;4936948;29;20199;-82
2024/02/19 12:17:43;;;;;;;7.23;6.63;;;11.30;22.10;;;;;;4938847;29;20923;-82
2024/02/19 12:20:13;;;;;;;6.73;6.43;;;11.40;22.30;;;;;;4953190;29;20282;-82
2024/02/19 12:22:40;;;;;;;7.40;6.97;;;11.40;21.70;;;;;;4937177;29;20464;-80
2024/02/19 12:25:06;;;;;;;7.17;6.57;;;11.40;21.50;;;;;;4944796;29;20452;-82
2024/02/19 12:27:33;;;;;;;7.30;6.97;;;11.40;21.30;;;;;;4953018;29;20519;-82
2024/02/19 12:29:59;;;;;;;7.60;7.20;;;11.50;21.10;;;;;;4949646;29;20445;-85
2024/02/19 12:32:24;;;;;;;7.33;6.93;;;11.50;21.50;;;;;;4953625;29;20888;-80
2024/02/19 12:34:50;;;;;;;7.20;6.90;;;11.50;21.20;;;;;;4938068;29;20568;-80
2024/02/19 12:37:15;;;;;;;6.67;6.37;;;11.50;21.50;;;;;;4937305;29;20199;-79
2024/02/19 12:39:42;;;;;;;7.73;7.33;;;11.60;20.50;;;;;;4938100;29;20184;-80
2024/02/19 12:42:08;;;;;;;7.17;6.97;;;11.50;21.00;;;;;;4937190;29;20208;-82